sensor_id;sensor_type;location;lat;lon;timestamp;P1;durP1;ratioP1;P2;durP2;ratioP2
1414;SDS011;702;49.466;11.086;2022-12-05T00:00:49;31.57;;;22.30;;
1414;SDS011;702;49.466;11.086;2022-12-05T00:03:16;28.23;;;21.67;;
1414;SDS011;702;49.466;11.086;2022-12-05T00:05:44;27.20;;;21.70;;
1414;SDS011;702;49.466;11.086;2022-12-05T00:08:11;31.43;;;22.93;;
1414;SDS011;702;49.466;11.086;2022-12-05T00:10:39;29.40;;;22.23;;
1414;SDS011;702;49.466;11.086;2022-12-05T00:13:07;30.80;;;22.20;;
1414;SDS011;702;49.466;11.086;2022-12-05T00:15:35;33.87;;;24.00;;
1414;SDS011;702;49.466;11.086;2022-12-05T00:18:04;34.33;;;22.97;;
1414;SDS011;702;49.466;11.086;2022-12-05T00:20:32;30.50;;;21.50;;
1414;SDS011;702;49.466;11.086;2022-12-05T00:22:59;30.10;;;22.30;;
1414;SDS011;702;49.466;11.086;2022-12-05T00:25:26;39.53;;;23.93;;
1414;SDS011;702;49.466;11.086;2022-12-05T00:27:55;32.60;;;22.80;;
1414;SDS011;702;49.466;11.086;2022-12-05T00:30:22;31.90;;;23.03;;
1414;SDS011;702;49.466;11.086;2022-12-05T00:32:50;29.40;;;22.93;;
1414;SDS011;702;49.466;11.086;2022-12-05T00:35:17;35.40;;;24.20;;
1414;SDS011;702;49.466;11.086;2022-12-05T00:37:45;33.57;;;23.10;;
1414;SDS011;702;49.466;11.086;2022-12-05T00:40:12;35.23;;;22.30;;
1414;SDS011;702;49.466;11.086;2022-12-05T00:42:39;34.97;;;23.10;;
1414;SDS011;702;49.466;11.086;2022-12-05T00:45:08;30.93;;;22.73;;
1414;SDS011;702;49.466;11.086;2022-12-05T00:47:36;33.07;;;23.17;;
1414;SDS011;702;49.466;11.086;2022-12-05T00:50:04;32.07;;;23.30;;
1414;SDS011;702;49.466;11.086;2022-12-05T00:52:33;30.83;;;22.37;;
1414;SDS011;702;49.466;11.086;2022-12-05T00:55:00;35.53;;;23.50;;
1414;SDS011;702;49.466;11.086;2022-12-05T00:57:27;34.23;;;23.77;;
1414;SDS011;702;49.466;11.086;2022-12-05T00:59:54;33.97;;;23.80;;
1414;SDS011;702;49.466;11.086;2022-12-05T01:02:23;37.53;;;24.87;;
1414;SDS011;702;49.466;11.086;2022-12-05T01:04:50;34.47;;;25.67;;
1414;SDS011;702;49.466;11.086;2022-12-05T01:07:17;34.50;;;24.53;;
1414;SDS011;702;49.466;11.086;2022-12-05T01:09:45;38.13;;;25.30;;
1414;SDS011;702;49.466;11.086;2022-12-05T01:12:12;32.50;;;24.10;;
1414;SDS011;702;49.466;11.086;2022-12-05T01:14:39;40.17;;;25.93;;
1414;SDS011;702;49.466;11.086;2022-12-05T01:17:06;37.37;;;24.90;;
1414;SDS011;702;49.466;11.086;2022-12-05T01:19:36;37.30;;;24.30;;
1414;SDS011;702;49.466;11.086;2022-12-05T01:22:04;38.23;;;25.33;;
1414;SDS011;702;49.466;11.086;2022-12-05T01:24:31;38.70;;;25.37;;
1414;SDS011;702;49.466;11.086;2022-12-05T01:26:58;36.47;;;24.30;;
1414;SDS011;702;49.466;11.086;2022-12-05T01:29:25;41.57;;;25.57;;
1414;SDS011;702;49.466;11.086;2022-12-05T01:31:52;39.70;;;26.30;;
1414;SDS011;702;49.466;11.086;2022-12-05T01:34:20;40.83;;;25.37;;
1414;SDS011;702;49.466;11.086;2022-12-05T01:36:49;46.27;;;26.13;;
1414;SDS011;702;49.466;11.086;2022-12-05T01:39:16;41.37;;;25.27;;
1414;SDS011;702;49.466;11.086;2022-12-05T01:41:45;40.73;;;27.77;;
1414;SDS011;702;49.466;11.086;2022-12-05T01:47:30;38.53;;;25.10;;
1414;SDS011;702;49.466;11.086;2022-12-05T01:50:00;38.83;;;26.80;;
1414;SDS011;702;49.466;11.086;2022-12-05T01:52:31;33.50;;;25.30;;
1414;SDS011;702;49.466;11.086;2022-12-05T01:55:02;38.40;;;25.53;;
1414;SDS011;702;49.466;11.086;2022-12-05T01:57:35;35.80;;;26.90;;
1414;SDS011;702;49.466;11.086;2022-12-05T02:00:04;38.97;;;25.87;;
1414;SDS011;702;49.466;11.086;2022-12-05T02:02:38;38.97;;;25.23;;
1414;SDS011;702;49.466;11.086;2022-12-05T02:05:10;37.63;;;25.97;;
1414;SDS011;702;49.466;11.086;2022-12-05T02:07:44;40.50;;;26.30;;
1414;SDS011;702;49.466;11.086;2022-12-05T02:10:13;37.20;;;26.33;;
1414;SDS011;702;49.466;11.086;2022-12-05T02:12:40;35.50;;;25.70;;
1414;SDS011;702;49.466;11.086;2022-12-05T02:15:16;32.13;;;22.07;;
1414;SDS011;702;49.466;11.086;2022-12-05T02:18:00;30.67;;;22.97;;
1414;SDS011;702;49.466;11.086;2022-12-05T02:20:44;33.50;;;23.00;;
1414;SDS011;702;49.466;11.086;2022-12-05T02:23:35;34.53;;;23.10;;
1414;SDS011;702;49.466;11.086;2022-12-05T02:26:43;31.37;;;23.07;;
1414;SDS011;702;49.466;11.086;2022-12-05T02:29:38;35.50;;;23.03;;
1414;SDS011;702;49.466;11.086;2022-12-05T02:32:31;30.53;;;21.33;;
1414;SDS011;702;49.466;11.086;2022-12-05T02:35:10;29.13;;;19.87;;
1414;SDS011;702;49.466;11.086;2022-12-05T02:37:49;27.27;;;21.50;;
1414;SDS011;702;49.466;11.086;2022-12-05T02:40:24;31.87;;;20.50;;
1414;SDS011;702;49.466;11.086;2022-12-05T02:42:58;28.43;;;20.23;;
1414;SDS011;702;49.466;11.086;2022-12-05T02:45:33;28.70;;;20.40;;
1414;SDS011;702;49.466;11.086;2022-12-05T02:48:02;27.17;;;19.70;;
1414;SDS011;702;49.466;11.086;2022-12-05T02:50:31;32.43;;;22.93;;
1414;SDS011;702;49.466;11.086;2022-12-05T02:53:03;30.93;;;22.20;;
1414;SDS011;702;49.466;11.086;2022-12-05T02:55:33;24.57;;;18.63;;
1414;SDS011;702;49.466;11.086;2022-12-05T02:58:02;28.13;;;19.93;;
1414;SDS011;702;49.466;11.086;2022-12-05T03:00:36;25.77;;;18.80;;
1414;SDS011;702;49.466;11.086;2022-12-05T03:03:10;26.97;;;19.63;;
1414;SDS011;702;49.466;11.086;2022-12-05T03:05:42;25.27;;;17.37;;
1414;SDS011;702;49.466;11.086;2022-12-05T03:08:15;24.50;;;16.33;;
1414;SDS011;702;49.466;11.086;2022-12-05T03:10:48;21.00;;;15.27;;
1414;SDS011;702;49.466;11.086;2022-12-05T03:13:19;22.57;;;16.87;;
1414;SDS011;702;49.466;11.086;2022-12-05T03:15:54;23.60;;;16.77;;
1414;SDS011;702;49.466;11.086;2022-12-05T03:18:27;25.07;;;17.20;;
1414;SDS011;702;49.466;11.086;2022-12-05T03:20:59;23.63;;;16.30;;
1414;SDS011;702;49.466;11.086;2022-12-05T03:23:31;20.77;;;16.00;;
1414;SDS011;702;49.466;11.086;2022-12-05T03:26:03;25.20;;;16.90;;
1414;SDS011;702;49.466;11.086;2022-12-05T03:28:41;23.40;;;16.87;;
1414;SDS011;702;49.466;11.086;2022-12-05T03:31:23;22.00;;;16.80;;
1414;SDS011;702;49.466;11.086;2022-12-05T03:34:01;19.03;;;16.23;;
1414;SDS011;702;49.466;11.086;2022-12-05T03:36:33;17.80;;;14.57;;
1414;SDS011;702;49.466;11.086;2022-12-05T03:39:06;20.93;;;15.23;;
1414;SDS011;702;49.466;11.086;2022-12-05T03:41:41;19.97;;;16.83;;
1414;SDS011;702;49.466;11.086;2022-12-05T03:44:19;22.70;;;16.40;;
1414;SDS011;702;49.466;11.086;2022-12-05T03:46:56;20.80;;;17.00;;
1414;SDS011;702;49.466;11.086;2022-12-05T03:49:28;18.60;;;15.17;;
1414;SDS011;702;49.466;11.086;2022-12-05T03:52:02;17.80;;;14.67;;
1414;SDS011;702;49.466;11.086;2022-12-05T03:54:34;16.13;;;13.77;;
1414;SDS011;702;49.466;11.086;2022-12-05T03:57:08;16.90;;;13.47;;
1414;SDS011;702;49.466;11.086;2022-12-05T03:59:42;18.63;;;13.17;;
1414;SDS011;702;49.466;11.086;2022-12-05T04:02:16;15.83;;;12.83;;
1414;SDS011;702;49.466;11.086;2022-12-05T04:04:52;15.60;;;13.30;;
1414;SDS011;702;49.466;11.086;2022-12-05T04:07:24;16.87;;;13.23;;
1414;SDS011;702;49.466;11.086;2022-12-05T04:09:54;14.43;;;12.40;;
1414;SDS011;702;49.466;11.086;2022-12-05T04:12:26;16.90;;;12.30;;
1414;SDS011;702;49.466;11.086;2022-12-05T04:14:57;16.03;;;12.57;;
1414;SDS011;702;49.466;11.086;2022-12-05T04:17:29;16.73;;;13.00;;
1414;SDS011;702;49.466;11.086;2022-12-05T04:20:01;18.37;;;13.40;;
1414;SDS011;702;49.466;11.086;2022-12-05T04:22:48;14.73;;;11.90;;
1414;SDS011;702;49.466;11.086;2022-12-05T04:25:16;16.53;;;11.30;;
1414;SDS011;702;49.466;11.086;2022-12-05T04:28:00;15.90;;;12.00;;
1414;SDS011;702;49.466;11.086;2022-12-05T04:30:42;13.23;;;11.60;;
1414;SDS011;702;49.466;11.086;2022-12-05T04:33:18;13.90;;;11.33;;
1414;SDS011;702;49.466;11.086;2022-12-05T04:35:57;16.20;;;11.20;;
1414;SDS011;702;49.466;11.086;2022-12-05T04:38:31;12.63;;;10.07;;
1414;SDS011;702;49.466;11.086;2022-12-05T04:41:06;13.73;;;10.60;;
1414;SDS011;702;49.466;11.086;2022-12-05T04:43:38;13.33;;;10.63;;
1414;SDS011;702;49.466;11.086;2022-12-05T04:46:08;12.77;;;9.67;;
1414;SDS011;702;49.466;11.086;2022-12-05T04:48:40;13.70;;;10.00;;
1414;SDS011;702;49.466;11.086;2022-12-05T04:51:14;13.13;;;9.47;;
1414;SDS011;702;49.466;11.086;2022-12-05T04:53:44;10.77;;;9.40;;
1414;SDS011;702;49.466;11.086;2022-12-05T04:56:15;10.67;;;9.60;;
1414;SDS011;702;49.466;11.086;2022-12-05T04:58:45;11.17;;;8.93;;
1414;SDS011;702;49.466;11.086;2022-12-05T05:01:13;12.10;;;9.30;;
1414;SDS011;702;49.466;11.086;2022-12-05T05:03:47;11.07;;;9.07;;
1414;SDS011;702;49.466;11.086;2022-12-05T05:06:18;11.70;;;9.47;;
1414;SDS011;702;49.466;11.086;2022-12-05T05:08:46;9.33;;;8.00;;
1414;SDS011;702;49.466;11.086;2022-12-05T05:11:16;9.50;;;8.00;;
1414;SDS011;702;49.466;11.086;2022-12-05T05:13:46;10.27;;;8.40;;
1414;SDS011;702;49.466;11.086;2022-12-05T05:16:14;10.30;;;8.00;;
1414;SDS011;702;49.466;11.086;2022-12-05T05:18:44;9.80;;;8.20;;
1414;SDS011;702;49.466;11.086;2022-12-05T05:21:16;11.27;;;8.07;;
1414;SDS011;702;49.466;11.086;2022-12-05T05:23:47;10.03;;;7.83;;
1414;SDS011;702;49.466;11.086;2022-12-05T05:26:14;10.77;;;8.80;;
1414;SDS011;702;49.466;11.086;2022-12-05T05:28:43;10.17;;;8.20;;
1414;SDS011;702;49.466;11.086;2022-12-05T05:31:11;10.97;;;6.97;;
1414;SDS011;702;49.466;11.086;2022-12-05T05:33:41;8.60;;;6.73;;
1414;SDS011;702;49.466;11.086;2022-12-05T05:36:10;10.30;;;7.83;;
1414;SDS011;702;49.466;11.086;2022-12-05T05:38:41;8.43;;;7.00;;
1414;SDS011;702;49.466;11.086;2022-12-05T05:41:11;10.13;;;7.47;;
1414;SDS011;702;49.466;11.086;2022-12-05T05:43:39;13.03;;;7.87;;
1414;SDS011;702;49.466;11.086;2022-12-05T05:46:06;8.97;;;7.27;;
1414;SDS011;702;49.466;11.086;2022-12-05T05:48:34;9.10;;;7.27;;
1414;SDS011;702;49.466;11.086;2022-12-05T05:51:03;9.17;;;7.13;;
1414;SDS011;702;49.466;11.086;2022-12-05T05:53:32;10.53;;;7.70;;
1414;SDS011;702;49.466;11.086;2022-12-05T05:56:02;8.77;;;7.40;;
1414;SDS011;702;49.466;11.086;2022-12-05T05:58:31;8.43;;;7.10;;
1414;SDS011;702;49.466;11.086;2022-12-05T06:01:01;9.10;;;7.40;;
1414;SDS011;702;49.466;11.086;2022-12-05T06:03:29;9.67;;;8.50;;
1414;SDS011;702;49.466;11.086;2022-12-05T06:05:57;12.27;;;8.70;;
1414;SDS011;702;49.466;11.086;2022-12-05T06:08:27;12.57;;;9.30;;
1414;SDS011;702;49.466;11.086;2022-12-05T06:10:56;14.70;;;9.57;;
1414;SDS011;702;49.466;11.086;2022-12-05T06:13:25;14.70;;;10.90;;
1414;SDS011;702;49.466;11.086;2022-12-05T06:15:52;14.23;;;9.73;;
1414;SDS011;702;49.466;11.086;2022-12-05T06:18:19;17.60;;;12.30;;
1414;SDS011;702;49.466;11.086;2022-12-05T06:20:51;18.83;;;11.80;;
1414;SDS011;702;49.466;11.086;2022-12-05T06:23:18;18.73;;;12.20;;
1414;SDS011;702;49.466;11.086;2022-12-05T06:25:46;18.97;;;13.03;;
1414;SDS011;702;49.466;11.086;2022-12-05T06:28:14;20.60;;;11.60;;
1414;SDS011;702;49.466;11.086;2022-12-05T06:30:43;20.13;;;12.37;;
1414;SDS011;702;49.466;11.086;2022-12-05T06:33:11;18.40;;;11.77;;
1414;SDS011;702;49.466;11.086;2022-12-05T06:35:38;20.97;;;11.97;;
1414;SDS011;702;49.466;11.086;2022-12-05T06:38:06;21.00;;;12.83;;
1414;SDS011;702;49.466;11.086;2022-12-05T06:40:34;20.50;;;13.47;;
1414;SDS011;702;49.466;11.086;2022-12-05T06:43:05;19.73;;;12.70;;
1414;SDS011;702;49.466;11.086;2022-12-05T06:45:32;25.63;;;13.43;;
1414;SDS011;702;49.466;11.086;2022-12-05T06:48:00;23.20;;;13.33;;
1414;SDS011;702;49.466;11.086;2022-12-05T06:50:28;20.63;;;13.40;;
1414;SDS011;702;49.466;11.086;2022-12-05T06:52:55;16.77;;;11.67;;
1414;SDS011;702;49.466;11.086;2022-12-05T06:55:22;23.37;;;12.67;;
1414;SDS011;702;49.466;11.086;2022-12-05T06:57:50;20.83;;;11.77;;
1414;SDS011;702;49.466;11.086;2022-12-05T07:00:17;19.53;;;10.80;;
1414;SDS011;702;49.466;11.086;2022-12-05T07:03:01;17.90;;;12.63;;
1414;SDS011;702;49.466;11.086;2022-12-05T07:05:28;17.50;;;11.87;;
1414;SDS011;702;49.466;11.086;2022-12-05T07:07:56;18.40;;;11.30;;
1414;SDS011;702;49.466;11.086;2022-12-05T07:10:24;17.57;;;11.53;;
1414;SDS011;702;49.466;11.086;2022-12-05T07:12:51;16.90;;;12.10;;
1414;SDS011;702;49.466;11.086;2022-12-05T07:15:19;18.40;;;12.60;;
1414;SDS011;702;49.466;11.086;2022-12-05T07:17:46;19.07;;;11.97;;
1414;SDS011;702;49.466;11.086;2022-12-05T07:20:14;21.40;;;11.93;;
1414;SDS011;702;49.466;11.086;2022-12-05T07:22:43;23.07;;;14.70;;
1414;SDS011;702;49.466;11.086;2022-12-05T07:25:10;20.50;;;13.23;;
1414;SDS011;702;49.466;11.086;2022-12-05T07:27:37;20.67;;;13.63;;
1414;SDS011;702;49.466;11.086;2022-12-05T07:30:05;22.30;;;13.23;;
1414;SDS011;702;49.466;11.086;2022-12-05T07:32:34;21.93;;;13.20;;
1414;SDS011;702;49.466;11.086;2022-12-05T07:35:01;21.80;;;13.60;;
1414;SDS011;702;49.466;11.086;2022-12-05T07:37:32;18.90;;;13.17;;
1414;SDS011;702;49.466;11.086;2022-12-05T07:39:59;25.30;;;14.27;;
1414;SDS011;702;49.466;11.086;2022-12-05T07:42:29;18.73;;;12.57;;
1414;SDS011;702;49.466;11.086;2022-12-05T07:44:57;20.47;;;12.97;;
1414;SDS011;702;49.466;11.086;2022-12-05T07:47:24;21.43;;;12.83;;
1414;SDS011;702;49.466;11.086;2022-12-05T07:49:51;21.90;;;13.70;;
1414;SDS011;702;49.466;11.086;2022-12-05T07:52:20;21.07;;;13.00;;
1414;SDS011;702;49.466;11.086;2022-12-05T07:54:49;19.47;;;12.30;;
1414;SDS011;702;49.466;11.086;2022-12-05T07:57:17;22.47;;;13.33;;
1414;SDS011;702;49.466;11.086;2022-12-05T07:59:44;18.87;;;12.07;;
1414;SDS011;702;49.466;11.086;2022-12-05T08:02:11;21.70;;;12.73;;
1414;SDS011;702;49.466;11.086;2022-12-05T08:04:39;19.43;;;13.30;;
1414;SDS011;702;49.466;11.086;2022-12-05T08:07:08;18.57;;;12.63;;
1414;SDS011;702;49.466;11.086;2022-12-05T08:09:36;18.57;;;12.20;;
1414;SDS011;702;49.466;11.086;2022-12-05T08:12:05;20.77;;;13.17;;
1414;SDS011;702;49.466;11.086;2022-12-05T08:14:34;22.73;;;12.57;;
1414;SDS011;702;49.466;11.086;2022-12-05T08:17:01;20.03;;;12.30;;
1414;SDS011;702;49.466;11.086;2022-12-05T08:19:29;20.33;;;13.57;;
1414;SDS011;702;49.466;11.086;2022-12-05T08:21:56;17.93;;;13.10;;
1414;SDS011;702;49.466;11.086;2022-12-05T08:24:23;20.47;;;13.00;;
1414;SDS011;702;49.466;11.086;2022-12-05T08:26:50;20.33;;;13.40;;
1414;SDS011;702;49.466;11.086;2022-12-05T08:29:20;17.40;;;12.63;;
1414;SDS011;702;49.466;11.086;2022-12-05T08:31:48;22.63;;;13.83;;
1414;SDS011;702;49.466;11.086;2022-12-05T08:34:17;22.20;;;14.13;;
1414;SDS011;702;49.466;11.086;2022-12-05T08:36:45;20.53;;;15.00;;
1414;SDS011;702;49.466;11.086;2022-12-05T08:39:14;22.50;;;14.47;;
1414;SDS011;702;49.466;11.086;2022-12-05T08:41:43;21.23;;;14.00;;
1414;SDS011;702;49.466;11.086;2022-12-05T08:44:12;22.93;;;13.40;;
1414;SDS011;702;49.466;11.086;2022-12-05T08:46:43;23.17;;;12.93;;
1414;SDS011;702;49.466;11.086;2022-12-05T08:49:13;20.70;;;13.00;;
1414;SDS011;702;49.466;11.086;2022-12-05T08:51:43;21.73;;;13.90;;
1414;SDS011;702;49.466;11.086;2022-12-05T08:54:10;22.37;;;13.50;;
1414;SDS011;702;49.466;11.086;2022-12-05T08:56:38;21.33;;;13.87;;
1414;SDS011;702;49.466;11.086;2022-12-05T08:59:06;20.97;;;13.70;;
1414;SDS011;702;49.466;11.086;2022-12-05T09:01:33;21.97;;;13.20;;
1414;SDS011;702;49.466;11.086;2022-12-05T09:04:04;24.93;;;14.53;;
1414;SDS011;702;49.466;11.086;2022-12-05T09:06:32;21.00;;;13.47;;
1414;SDS011;702;49.466;11.086;2022-12-05T09:09:02;18.87;;;13.23;;
1414;SDS011;702;49.466;11.086;2022-12-05T09:11:33;19.67;;;13.00;;
1414;SDS011;702;49.466;11.086;2022-12-05T09:14:02;24.67;;;14.87;;
1414;SDS011;702;49.466;11.086;2022-12-05T09:16:31;19.97;;;14.00;;
1414;SDS011;702;49.466;11.086;2022-12-05T09:19:00;19.87;;;13.63;;
1414;SDS011;702;49.466;11.086;2022-12-05T09:21:29;22.03;;;14.10;;
1414;SDS011;702;49.466;11.086;2022-12-05T09:23:58;22.73;;;14.33;;
1414;SDS011;702;49.466;11.086;2022-12-05T09:26:27;20.43;;;13.83;;
1414;SDS011;702;49.466;11.086;2022-12-05T09:28:55;22.97;;;15.03;;
1414;SDS011;702;49.466;11.086;2022-12-05T09:31:24;23.07;;;12.80;;
1414;SDS011;702;49.466;11.086;2022-12-05T09:33:53;20.00;;;13.57;;
1414;SDS011;702;49.466;11.086;2022-12-05T09:36:21;21.53;;;14.67;;
1414;SDS011;702;49.466;11.086;2022-12-05T09:38:52;22.93;;;14.47;;
1414;SDS011;702;49.466;11.086;2022-12-05T09:41:24;27.80;;;14.33;;
1414;SDS011;702;49.466;11.086;2022-12-05T09:44:45;19.00;;;13.17;;
1414;SDS011;702;49.466;11.086;2022-12-05T09:47:28;21.77;;;14.97;;
1414;SDS011;702;49.466;11.086;2022-12-05T09:50:11;21.80;;;14.10;;
1414;SDS011;702;49.466;11.086;2022-12-05T09:52:49;23.10;;;15.10;;
1414;SDS011;702;49.466;11.086;2022-12-05T09:55:41;21.13;;;14.20;;
1414;SDS011;702;49.466;11.086;2022-12-05T09:58:16;24.43;;;14.50;;
1414;SDS011;702;49.466;11.086;2022-12-05T10:00:51;24.60;;;13.90;;
1414;SDS011;702;49.466;11.086;2022-12-05T10:03:28;28.20;;;15.47;;
1414;SDS011;702;49.466;11.086;2022-12-05T10:06:09;22.10;;;14.60;;
1414;SDS011;702;49.466;11.086;2022-12-05T10:08:48;20.63;;;13.00;;
1414;SDS011;702;49.466;11.086;2022-12-05T10:11:36;24.73;;;14.63;;
1414;SDS011;702;49.466;11.086;2022-12-05T10:14:11;23.43;;;14.07;;
1414;SDS011;702;49.466;11.086;2022-12-05T10:16:49;22.37;;;15.00;;
1414;SDS011;702;49.466;11.086;2022-12-05T10:19:22;24.70;;;16.00;;
1414;SDS011;702;49.466;11.086;2022-12-05T10:21:54;24.27;;;15.47;;
1414;SDS011;702;49.466;11.086;2022-12-05T10:24:28;21.00;;;14.47;;
1414;SDS011;702;49.466;11.086;2022-12-05T10:27:00;24.67;;;15.00;;
1414;SDS011;702;49.466;11.086;2022-12-05T10:29:34;22.13;;;14.47;;
1414;SDS011;702;49.466;11.086;2022-12-05T10:32:09;24.43;;;14.37;;
1414;SDS011;702;49.466;11.086;2022-12-05T10:34:42;22.27;;;14.80;;
1414;SDS011;702;49.466;11.086;2022-12-05T10:37:12;20.50;;;14.07;;
1414;SDS011;702;49.466;11.086;2022-12-05T10:39:42;21.50;;;14.50;;
1414;SDS011;702;49.466;11.086;2022-12-05T10:42:14;21.00;;;14.33;;
1414;SDS011;702;49.466;11.086;2022-12-05T10:44:45;18.67;;;13.60;;
1414;SDS011;702;49.466;11.086;2022-12-05T10:47:13;23.43;;;14.07;;
1414;SDS011;702;49.466;11.086;2022-12-05T10:49:41;21.67;;;14.23;;
1414;SDS011;702;49.466;11.086;2022-12-05T10:52:08;21.47;;;14.80;;
1414;SDS011;702;49.466;11.086;2022-12-05T10:54:39;19.90;;;14.43;;
1414;SDS011;702;49.466;11.086;2022-12-05T10:57:20;25.10;;;15.40;;
1414;SDS011;702;49.466;11.086;2022-12-05T10:59:51;23.60;;;14.57;;
1414;SDS011;702;49.466;11.086;2022-12-05T11:02:22;19.90;;;14.43;;
1414;SDS011;702;49.466;11.086;2022-12-05T11:04:53;20.93;;;13.07;;
1414;SDS011;702;49.466;11.086;2022-12-05T11:07:22;19.50;;;13.50;;
1414;SDS011;702;49.466;11.086;2022-12-05T11:09:56;21.00;;;15.07;;
1414;SDS011;702;49.466;11.086;2022-12-05T11:12:27;21.33;;;14.50;;
1414;SDS011;702;49.466;11.086;2022-12-05T11:15:03;19.57;;;14.10;;
1414;SDS011;702;49.466;11.086;2022-12-05T11:17:47;21.67;;;14.40;;
1414;SDS011;702;49.466;11.086;2022-12-05T11:25:55;18.00;;;13.07;;
1414;SDS011;702;49.466;11.086;2022-12-05T11:28:35;23.13;;;14.70;;
1414;SDS011;702;49.466;11.086;2022-12-05T11:31:05;22.17;;;14.40;;
1414;SDS011;702;49.466;11.086;2022-12-05T11:33:57;21.07;;;13.33;;
1414;SDS011;702;49.466;11.086;2022-12-05T11:36:34;17.77;;;12.63;;
1414;SDS011;702;49.466;11.086;2022-12-05T11:39:07;20.07;;;13.40;;
1414;SDS011;702;49.466;11.086;2022-12-05T11:41:40;19.20;;;14.03;;
1414;SDS011;702;49.466;11.086;2022-12-05T11:44:31;19.70;;;14.70;;
1414;SDS011;702;49.466;11.086;2022-12-05T11:47:36;17.37;;;12.90;;
1414;SDS011;702;49.466;11.086;2022-12-05T11:50:19;14.87;;;10.90;;
1414;SDS011;702;49.466;11.086;2022-12-05T11:53:03;15.13;;;11.13;;
1414;SDS011;702;49.466;11.086;2022-12-05T11:55:52;15.93;;;10.90;;
1414;SDS011;702;49.466;11.086;2022-12-05T12:01:29;15.27;;;10.50;;
1414;SDS011;702;49.466;11.086;2022-12-05T12:04:20;17.13;;;12.53;;
1414;SDS011;702;49.466;11.086;2022-12-05T12:07:12;15.67;;;11.43;;
1414;SDS011;702;49.466;11.086;2022-12-05T12:09:53;18.83;;;10.93;;
1414;SDS011;702;49.466;11.086;2022-12-05T12:12:35;19.30;;;11.87;;
1414;SDS011;702;49.466;11.086;2022-12-05T12:15:18;15.83;;;12.07;;
1414;SDS011;702;49.466;11.086;2022-12-05T12:18:04;20.40;;;14.23;;
1414;SDS011;702;49.466;11.086;2022-12-05T12:20:42;20.00;;;13.97;;
1414;SDS011;702;49.466;11.086;2022-12-05T12:23:35;20.60;;;14.07;;
1414;SDS011;702;49.466;11.086;2022-12-05T12:26:13;20.57;;;14.23;;
1414;SDS011;702;49.466;11.086;2022-12-05T12:28:51;22.83;;;14.40;;
1414;SDS011;702;49.466;11.086;2022-12-05T12:31:40;20.43;;;13.90;;
1414;SDS011;702;49.466;11.086;2022-12-05T12:34:42;18.73;;;13.63;;
1414;SDS011;702;49.466;11.086;2022-12-05T12:37:26;20.80;;;13.50;;
1414;SDS011;702;49.466;11.086;2022-12-05T12:40:03;19.40;;;12.53;;
1414;SDS011;702;49.466;11.086;2022-12-05T12:42:40;20.77;;;13.17;;
1414;SDS011;702;49.466;11.086;2022-12-05T12:45:26;21.07;;;13.90;;
1414;SDS011;702;49.466;11.086;2022-12-05T12:48:12;17.53;;;12.63;;
1414;SDS011;702;49.466;11.086;2022-12-05T12:51:00;19.13;;;13.30;;
1414;SDS011;702;49.466;11.086;2022-12-05T12:53:48;19.33;;;13.60;;
1414;SDS011;702;49.466;11.086;2022-12-05T12:56:31;20.93;;;13.67;;
1414;SDS011;702;49.466;11.086;2022-12-05T12:59:09;24.83;;;14.30;;
1414;SDS011;702;49.466;11.086;2022-12-05T13:01:56;20.33;;;13.57;;
1414;SDS011;702;49.466;11.086;2022-12-05T13:04:35;18.47;;;13.20;;
1414;SDS011;702;49.466;11.086;2022-12-05T13:07:11;19.70;;;11.80;;
1414;SDS011;702;49.466;11.086;2022-12-05T13:09:45;21.23;;;13.67;;
1414;SDS011;702;49.466;11.086;2022-12-05T13:12:20;21.63;;;13.20;;
1414;SDS011;702;49.466;11.086;2022-12-05T13:14:53;18.37;;;13.80;;
1414;SDS011;702;49.466;11.086;2022-12-05T13:17:24;17.90;;;13.90;;
1414;SDS011;702;49.466;11.086;2022-12-05T13:19:53;20.83;;;12.70;;
1414;SDS011;702;49.466;11.086;2022-12-05T13:22:23;18.10;;;12.50;;
1414;SDS011;702;49.466;11.086;2022-12-05T13:24:53;19.33;;;13.20;;
1414;SDS011;702;49.466;11.086;2022-12-05T13:27:22;18.53;;;12.00;;
1414;SDS011;702;49.466;11.086;2022-12-05T13:29:53;15.53;;;12.00;;
1414;SDS011;702;49.466;11.086;2022-12-05T13:32:24;20.00;;;13.33;;
1414;SDS011;702;49.466;11.086;2022-12-05T13:34:56;18.53;;;12.70;;
1414;SDS011;702;49.466;11.086;2022-12-05T13:37:29;20.83;;;17.80;;
1414;SDS011;702;49.466;11.086;2022-12-05T13:40:23;14.70;;;12.00;;
1414;SDS011;702;49.466;11.086;2022-12-05T13:43:11;14.43;;;11.67;;
1414;SDS011;702;49.466;11.086;2022-12-05T13:45:51;18.00;;;12.90;;
1414;SDS011;702;49.466;11.086;2022-12-05T13:48:27;14.83;;;11.47;;
1414;SDS011;702;49.466;11.086;2022-12-05T13:50:59;18.97;;;11.43;;
1414;SDS011;702;49.466;11.086;2022-12-05T13:53:35;15.40;;;11.57;;
1414;SDS011;702;49.466;11.086;2022-12-05T13:56:21;17.03;;;11.77;;
1414;SDS011;702;49.466;11.086;2022-12-05T13:58:53;12.70;;;10.60;;
1414;SDS011;702;49.466;11.086;2022-12-05T14:10:11;16.60;;;12.10;;
1414;SDS011;702;49.466;11.086;2022-12-05T14:12:48;13.07;;;11.63;;
1414;SDS011;702;49.466;11.086;2022-12-05T14:15:25;19.20;;;14.40;;
1414;SDS011;702;49.466;11.086;2022-12-05T14:17:56;20.23;;;14.77;;
1414;SDS011;702;49.466;11.086;2022-12-05T14:20:30;21.30;;;13.70;;
1414;SDS011;702;49.466;11.086;2022-12-05T14:23:16;20.50;;;13.00;;
1414;SDS011;702;49.466;11.086;2022-12-05T14:26:19;15.57;;;12.40;;
1414;SDS011;702;49.466;11.086;2022-12-05T14:32:09;16.90;;;12.60;;
1414;SDS011;702;49.466;11.086;2022-12-05T14:34:51;18.57;;;11.90;;
1414;SDS011;702;49.466;11.086;2022-12-05T14:37:26;17.53;;;11.53;;
1414;SDS011;702;49.466;11.086;2022-12-05T14:39:59;19.20;;;13.17;;
1414;SDS011;702;49.466;11.086;2022-12-05T14:42:33;14.90;;;12.23;;
1414;SDS011;702;49.466;11.086;2022-12-05T14:45:20;19.30;;;13.93;;
1414;SDS011;702;49.466;11.086;2022-12-05T14:47:54;16.80;;;13.10;;
1414;SDS011;702;49.466;11.086;2022-12-05T14:50:35;19.03;;;13.03;;
1414;SDS011;702;49.466;11.086;2022-12-05T14:56:12;15.57;;;12.33;;
1414;SDS011;702;49.466;11.086;2022-12-05T14:58:52;16.10;;;11.60;;
1414;SDS011;702;49.466;11.086;2022-12-05T15:01:25;14.30;;;11.80;;
1414;SDS011;702;49.466;11.086;2022-12-05T15:03:59;14.90;;;11.40;;
1414;SDS011;702;49.466;11.086;2022-12-05T15:06:45;17.27;;;13.37;;
1414;SDS011;702;49.466;11.086;2022-12-05T15:09:29;17.20;;;12.30;;
1414;SDS011;702;49.466;11.086;2022-12-05T15:12:12;21.30;;;12.20;;
1414;SDS011;702;49.466;11.086;2022-12-05T15:14:44;18.07;;;12.40;;
1414;SDS011;702;49.466;11.086;2022-12-05T15:17:20;18.77;;;12.50;;
1414;SDS011;702;49.466;11.086;2022-12-05T15:19:55;19.90;;;13.57;;
1414;SDS011;702;49.466;11.086;2022-12-05T15:22:27;17.10;;;13.80;;
1414;SDS011;702;49.466;11.086;2022-12-05T15:25:12;16.50;;;12.93;;
1414;SDS011;702;49.466;11.086;2022-12-05T15:27:41;19.17;;;12.60;;
1414;SDS011;702;49.466;11.086;2022-12-05T15:30:20;17.80;;;12.30;;
1414;SDS011;702;49.466;11.086;2022-12-05T15:32:48;18.77;;;14.00;;
1414;SDS011;702;49.466;11.086;2022-12-05T15:35:15;20.60;;;13.40;;
1414;SDS011;702;49.466;11.086;2022-12-05T15:37:45;19.30;;;13.70;;
1414;SDS011;702;49.466;11.086;2022-12-05T15:40:18;20.20;;;13.30;;
1414;SDS011;702;49.466;11.086;2022-12-05T15:42:48;19.83;;;14.37;;
1414;SDS011;702;49.466;11.086;2022-12-05T15:45:18;20.60;;;14.67;;
1414;SDS011;702;49.466;11.086;2022-12-05T15:47:50;20.23;;;15.63;;
1414;SDS011;702;49.466;11.086;2022-12-05T15:50:23;21.30;;;14.60;;
1414;SDS011;702;49.466;11.086;2022-12-05T15:52:57;19.63;;;14.50;;